createdAt,value
2018-08-24T00:00:23.792Z,8.17
2018-08-24T00:05:28.137Z,7.40
2018-08-24T00:10:33.332Z,6.20
2018-08-24T00:15:37.881Z,6.23
2018-08-24T00:20:42.431Z,5.23
2018-08-24T00:25:46.716Z,4.93
2018-08-24T00:30:51.711Z,4.97
2018-08-24T00:35:56.066Z,4.90
2018-08-24T00:41:00.443Z,4.90
2018-08-24T00:46:05.644Z,4.67
2018-08-24T00:51:10.224Z,4.27
2018-08-24T00:56:14.754Z,4.50
2018-08-24T01:01:19.878Z,4.67
2018-08-24T01:06:25.253Z,3.53
2018-08-24T01:11:34.994Z,4.07
2018-08-24T01:16:44.509Z,3.80
2018-08-24T01:21:49.057Z,3.40
2018-08-24T01:27:04.990Z,3.13
2018-08-24T01:32:11.238Z,3.10
2018-08-24T01:37:15.788Z,3.33
2018-08-24T01:42:20.232Z,3.67
2018-08-24T01:47:25.067Z,3.07
2018-08-24T01:52:29.481Z,3.40
2018-08-24T01:57:33.910Z,3.40
2018-08-24T02:02:38.499Z,3.63
2018-08-24T02:07:42.964Z,3.63
2018-08-24T02:12:52.284Z,3.73
2018-08-24T02:18:01.634Z,3.40
2018-08-24T02:23:11.256Z,3.80
2018-08-24T02:28:15.759Z,4.03
2018-08-24T02:33:20.220Z,4.87
2018-08-24T02:38:24.551Z,4.37
2018-08-24T02:43:29.021Z,4.00
2018-08-24T02:48:33.388Z,4.90
2018-08-24T02:53:38.597Z,4.63
2018-08-24T02:58:42.978Z,4.53
2018-08-24T03:03:47.299Z,4.93
2018-08-24T03:08:52.539Z,5.30
2018-08-24T03:13:56.903Z,8.00
2018-08-24T03:19:01.265Z,9.50
2018-08-24T03:24:06.722Z,10.63
2018-08-24T03:29:11.255Z,11.47
2018-08-24T03:34:15.805Z,10.20
2018-08-24T03:39:20.284Z,11.73
2018-08-24T03:44:24.890Z,13.27
2018-08-24T03:49:29.453Z,15.53
2018-08-24T03:54:33.897Z,17.53
2018-08-24T03:59:38.311Z,19.70
2018-08-24T04:04:42.831Z,22.13
2018-08-24T04:09:47.195Z,22.70
2018-08-24T04:14:51.503Z,23.97
2018-08-24T04:19:56.060Z,24.60
2018-08-24T04:25:00.548Z,26.40
2018-08-24T04:30:05.039Z,25.10
2018-08-24T04:35:10.130Z,25.90
2018-08-24T04:40:14.521Z,25.20
2018-08-24T04:45:19.125Z,25.17
2018-08-24T04:50:25.308Z,24.77
2018-08-24T04:55:29.676Z,25.30
2018-08-24T05:00:34.107Z,27.50
2018-08-24T05:05:38.977Z,27.63
2018-08-24T05:10:44.128Z,27.63
2018-08-24T05:15:48.461Z,27.63
2018-08-24T05:20:53.033Z,28.63
2018-08-24T05:25:57.816Z,28.67
2018-08-24T05:31:02.441Z,29.17
2018-08-24T05:36:07.050Z,32.30
2018-08-24T05:41:11.405Z,33.00
2018-08-24T05:46:16.525Z,32.33
2018-08-24T05:51:20.885Z,33.73
2018-08-24T05:56:25.429Z,29.90
2018-08-24T06:01:29.890Z,30.23
2018-08-24T06:06:34.915Z,27.50
2018-08-24T06:11:39.460Z,28.23
2018-08-24T06:16:49.100Z,28.60
2018-08-24T06:21:53.707Z,26.87
2018-08-24T06:26:58.362Z,26.47
2018-08-24T06:32:03.059Z,28.13
2018-08-24T06:37:08.316Z,30.43
2018-08-24T06:42:13.046Z,29.37
2018-08-24T06:47:17.636Z,29.43
2018-08-24T06:52:22.357Z,28.37
2018-08-24T06:57:27.139Z,29.13
2018-08-24T07:02:31.682Z,29.43
2018-08-24T07:07:36.432Z,29.10
2018-08-24T07:12:40.973Z,29.47
2018-08-24T07:17:50.719Z,29.00
2018-08-24T07:22:55.141Z,27.63
2018-08-24T07:27:59.731Z,26.67
2018-08-24T07:33:04.252Z,27.37
2018-08-24T07:38:08.702Z,24.67
2018-08-24T07:43:13.377Z,23.53
2018-08-24T07:48:17.784Z,21.50
2018-08-24T07:53:22.250Z,19.17
2018-08-24T07:58:26.841Z,19.30
2018-08-24T08:03:31.390Z,20.90
2018-08-24T08:08:36.105Z,20.83
2018-08-24T08:13:41.189Z,19.07
2018-08-24T08:18:46.380Z,19.80
2018-08-24T08:23:50.857Z,19.17
2018-08-24T08:28:55.278Z,18.70
2018-08-24T08:33:59.998Z,18.10
2018-08-24T08:39:05.752Z,18.67
2018-08-24T08:44:10.845Z,19.73
2018-08-24T08:49:15.155Z,22.23
2018-08-24T08:54:20.001Z,22.03
2018-08-24T08:59:24.420Z,22.93
2018-08-24T09:04:28.968Z,24.10
2018-08-24T09:09:33.432Z,23.23
2018-08-24T09:14:38.702Z,23.67
2018-08-24T09:19:48.260Z,24.07
2018-08-24T09:25:01.074Z,25.27
2018-08-24T09:30:06.559Z,12.40
2018-08-24T09:35:11.169Z,14.27
2018-08-24T09:40:15.695Z,16.70
2018-08-24T09:45:20.137Z,19.17
2018-08-24T09:50:29.554Z,20.80
2018-08-24T09:55:39.727Z,21.03
2018-08-24T10:00:49.405Z,19.97
2018-08-24T10:06:00.287Z,19.20
2018-08-24T10:11:05.072Z,18.70
2018-08-24T10:16:09.465Z,15.93
2018-08-24T10:21:14.044Z,15.23
2018-08-24T10:26:19.846Z,15.57
2018-08-24T10:31:24.286Z,12.83
2018-08-24T10:36:29.159Z,10.03
2018-08-24T10:41:34.304Z,10.77
2018-08-24T10:46:54.545Z,7.27
2018-08-24T10:52:03.152Z,7.50
2018-08-24T10:57:07.562Z,6.07
2018-08-24T11:02:12.025Z,6.47
2018-08-24T11:07:16.731Z,5.00
2018-08-24T11:12:21.253Z,3.97
2018-08-24T11:17:25.909Z,3.63
2018-08-24T11:22:30.980Z,3.90
2018-08-24T11:27:35.739Z,4.33
2018-08-24T11:32:40.726Z,4.60
2018-08-24T11:37:45.191Z,4.70
2018-08-24T11:42:49.778Z,4.30
2018-08-24T11:47:54.213Z,4.57
2018-08-24T11:52:58.866Z,4.53
2018-08-24T11:58:03.252Z,4.43
2018-08-24T12:03:08.537Z,3.57
2018-08-24T12:08:13.416Z,3.83
2018-08-24T12:13:17.985Z,3.93
2018-08-24T12:18:22.536Z,3.70
2018-08-24T12:23:28.933Z,3.10
2018-08-24T12:28:35.764Z,3.43
2018-08-24T12:33:42.274Z,3.10
2018-08-24T12:38:49.081Z,3.40
2018-08-24T12:43:56.006Z,3.83
2018-08-24T12:49:04.007Z,2.80
2018-08-24T12:54:10.913Z,2.57
2018-08-24T12:59:18.435Z,2.87
2018-08-24T13:04:25.653Z,3.00
2018-08-24T13:09:32.346Z,2.23
2018-08-24T13:14:40.125Z,2.53
2018-08-24T13:19:46.908Z,2.27
2018-08-24T13:24:53.183Z,2.00
2018-08-24T13:29:59.780Z,1.80
2018-08-24T13:44:46.920Z,1.90
2018-08-24T13:49:54.757Z,1.80
2018-08-24T13:55:02.167Z,1.23
2018-08-24T14:00:10.148Z,1.67
2018-08-24T14:05:17.664Z,1.20
2018-08-24T14:10:25.012Z,1.57
2018-08-24T14:15:34.404Z,1.60
2018-08-24T14:20:42.837Z,1.70
2018-08-24T14:25:49.081Z,1.80
2018-08-24T14:30:57.052Z,1.97
2018-08-24T14:36:05.027Z,1.90
2018-08-24T14:41:13.155Z,2.10
2018-08-24T14:46:20.926Z,1.53
2018-08-24T14:51:26.659Z,1.50
2018-08-24T14:56:31.249Z,1.10
2018-08-24T15:01:35.644Z,1.40
2018-08-24T15:06:40.356Z,1.30
2018-08-24T15:11:44.774Z,1.23
2018-08-24T15:16:49.262Z,1.43
2018-08-24T15:21:53.785Z,1.20
2018-08-24T15:26:58.209Z,1.47
2018-08-24T15:32:02.788Z,1.40
2018-08-24T15:37:07.177Z,1.30
2018-08-24T15:42:11.699Z,1.67
2018-08-24T15:47:16.732Z,1.70
2018-08-24T15:52:21.293Z,1.40
2018-08-24T15:57:25.869Z,1.37
2018-08-24T16:02:30.363Z,1.50
2018-08-24T16:07:38.387Z,1.30
2018-08-24T16:12:42.929Z,1.40
2018-08-24T16:17:51.647Z,1.33
2018-08-24T16:22:57.022Z,1.23
2018-08-24T16:28:01.445Z,1.63
2018-08-24T16:33:05.809Z,1.60
2018-08-24T16:38:10.494Z,2.07
2018-08-24T16:43:15.478Z,1.60
2018-08-24T16:48:20.008Z,1.30
2018-08-24T16:53:25.092Z,1.17
2018-08-24T16:58:29.719Z,1.30
2018-08-24T17:03:34.159Z,1.37
2018-08-24T17:08:38.612Z,1.80
2018-08-24T17:13:43.108Z,1.70
2018-08-24T17:18:47.596Z,1.50
2018-08-24T17:23:52.127Z,1.70
2018-08-24T17:28:56.681Z,1.43
2018-08-24T17:34:01.141Z,1.50
2018-08-24T17:39:08.870Z,1.20
2018-08-24T17:44:13.978Z,1.70
2018-08-24T17:49:18.368Z,1.37
2018-08-24T17:54:23.620Z,1.37
2018-08-24T17:59:28.176Z,1.43
2018-08-24T18:04:32.951Z,1.60
2018-08-24T18:09:37.786Z,1.53
2018-08-24T18:14:42.782Z,1.53
2018-08-24T18:19:47.261Z,1.50
2018-08-24T18:24:51.756Z,1.70
2018-08-24T18:29:56.361Z,2.00
2018-08-24T18:35:01.287Z,1.30
2018-08-24T18:40:06.091Z,1.33
2018-08-24T18:45:10.875Z,1.37
2018-08-24T18:50:15.551Z,1.30
2018-08-24T18:55:26.240Z,1.20
2018-08-24T19:00:31.707Z,1.30
2018-08-24T19:05:38.201Z,1.47
2018-08-24T19:11:06.811Z,1.07
2018-08-24T19:17:22.116Z,1.03
2018-08-24T19:22:31.947Z,1.30
2018-08-24T19:27:42.619Z,1.50
2018-08-24T19:32:51.519Z,1.40
2018-08-24T19:37:58.319Z,1.30
2018-08-24T19:43:04.399Z,1.33
2018-08-24T19:48:14.693Z,1.27
2018-08-24T19:53:21.168Z,1.40
2018-08-24T19:58:32.265Z,1.97
2018-08-24T20:03:39.065Z,1.47
2018-08-24T20:08:49.853Z,1.30
2018-08-24T20:13:56.647Z,1.17
2018-08-24T20:19:12.256Z,0.97
2018-08-24T20:24:19.237Z,1.30
2018-08-24T20:29:24.930Z,1.30
2018-08-24T20:45:46.460Z,1.37
2018-08-24T20:50:52.744Z,1.23
2018-08-24T20:56:00.258Z,1.37
2018-08-24T21:01:18.731Z,1.30
2018-08-24T21:06:26.144Z,1.30
2018-08-24T21:11:53.010Z,1.20
2018-08-24T21:16:59.585Z,1.53
2018-08-24T21:22:05.583Z,1.37
2018-08-24T21:27:12.073Z,1.37
2018-08-24T21:32:17.543Z,1.57
2018-08-24T21:37:26.078Z,1.40
2018-08-24T21:42:35.642Z,1.50
2018-08-24T21:47:41.112Z,1.50
2018-08-24T21:52:53.333Z,1.30
2018-08-24T21:57:59.788Z,1.80
2018-08-24T22:03:07.035Z,1.50
2018-08-24T22:08:12.907Z,1.60
2018-08-24T22:13:19.602Z,1.40
2018-08-24T22:18:30.091Z,1.30
2018-08-24T22:23:35.641Z,1.60
2018-08-24T22:28:42.251Z,1.87
2018-08-24T22:33:49.353Z,1.37
2018-08-24T22:41:06.202Z,1.10
2018-08-24T22:46:12.392Z,1.70
2018-08-24T22:51:18.264Z,1.57
2018-08-24T22:56:36.528Z,1.60
2018-08-24T23:01:48.548Z,1.57
2018-08-24T23:06:58.459Z,1.50
2018-08-24T23:12:30.809Z,1.40
2018-08-24T23:17:37.501Z,1.20
2018-08-24T23:22:43.291Z,1.50
2018-08-24T23:27:49.572Z,1.37
2018-08-24T23:32:56.370Z,1.63
2018-08-24T23:38:01.442Z,1.73
2018-08-24T23:43:06.886Z,1.60
2018-08-24T23:48:12.333Z,1.33
2018-08-24T23:53:18.542Z,1.70
2018-08-24T23:58:23.579Z,1.40
